sensor_id;sensor_type;location;lat;lon;timestamp;pressure;altitude;pressure_sealevel;temperature;humidity
53270;BME280;39159;45.634;9.420;2023-05-11T00:00:02;98458.59;;;12.21;100.00
53270;BME280;39159;45.634;9.420;2023-05-11T00:02:27;98453.34;;;12.16;100.00
53270;BME280;39159;45.634;9.420;2023-05-11T00:04:53;98451.41;;;12.17;100.00
53270;BME280;39159;45.634;9.420;2023-05-11T00:07:19;98448.50;;;12.13;100.00
53270;BME280;39159;45.634;9.420;2023-05-11T00:09:45;98443.50;;;12.15;100.00
53270;BME280;39159;45.634;9.420;2023-05-11T00:12:11;98438.84;;;12.16;100.00
53270;BME280;39159;45.634;9.420;2023-05-11T00:14:37;98439.31;;;12.18;100.00
53270;BME280;39159;45.634;9.420;2023-05-11T00:17:03;98438.50;;;12.17;100.00
53270;BME280;39159;45.634;9.420;2023-05-11T00:19:28;98428.72;;;12.16;100.00
53270;BME280;39159;45.634;9.420;2023-05-11T00:21:56;98436.56;;;12.18;100.00
53270;BME280;39159;45.634;9.420;2023-05-11T00:24:23;98429.19;;;12.18;100.00
53270;BME280;39159;45.634;9.420;2023-05-11T00:26:48;98422.56;;;12.19;100.00
53270;BME280;39159;45.634;9.420;2023-05-11T00:29:14;98420.63;;;12.20;100.00
53270;BME280;39159;45.634;9.420;2023-05-11T00:31:40;98418.69;;;12.20;100.00
53270;BME280;39159;45.634;9.420;2023-05-11T00:34:05;98410.47;;;12.20;100.00
53270;BME280;39159;45.634;9.420;2023-05-11T00:36:31;98401.84;;;12.18;100.00
53270;BME280;39159;45.634;9.420;2023-05-11T00:38:57;98407.31;;;12.18;100.00
53270;BME280;39159;45.634;9.420;2023-05-11T00:41:23;98401.00;;;12.18;100.00
53270;BME280;39159;45.634;9.420;2023-05-11T00:43:48;98395.06;;;12.16;100.00
53270;BME280;39159;45.634;9.420;2023-05-11T00:46:14;98393.16;;;12.16;100.00
53270;BME280;39159;45.634;9.420;2023-05-11T00:48:39;98393.00;;;12.13;100.00
53270;BME280;39159;45.634;9.420;2023-05-11T00:51:05;98382.75;;;12.10;100.00
53270;BME280;39159;45.634;9.420;2023-05-11T00:53:31;98382.38;;;12.11;100.00
53270;BME280;39159;45.634;9.420;2023-05-11T00:55:57;98374.84;;;12.08;100.00
53270;BME280;39159;45.634;9.420;2023-05-11T00:58:23;98378.72;;;12.07;100.00
53270;BME280;39159;45.634;9.420;2023-05-11T01:00:49;98382.59;;;12.06;100.00
53270;BME280;39159;45.634;9.420;2023-05-11T01:03:15;98380.19;;;12.05;100.00
53270;BME280;39159;45.634;9.420;2023-05-11T01:05:52;98376.66;;;12.04;100.00
53270;BME280;39159;45.634;9.420;2023-05-11T01:14:07;98375.06;;;12.03;100.00
53270;BME280;39159;45.634;9.420;2023-05-11T01:16:39;98368.75;;;12.02;100.00
53270;BME280;39159;45.634;9.420;2023-05-11T01:19:11;98368.75;;;12.02;100.00
53270;BME280;39159;45.634;9.420;2023-05-11T01:21:40;98373.91;;;12.04;100.00
53270;BME280;39159;45.634;9.420;2023-05-11T01:24:43;98376.81;;;12.08;100.00
53270;BME280;39159;45.634;9.420;2023-05-11T01:27:31;98372.78;;;12.05;100.00
53270;BME280;39159;45.634;9.420;2023-05-11T01:30:25;98381.69;;;11.93;100.00
53270;BME280;39159;45.634;9.420;2023-05-11T01:32:58;98380.44;;;11.91;100.00
53270;BME280;39159;45.634;9.420;2023-05-11T01:35:28;98377.84;;;11.94;100.00
53270;BME280;39159;45.634;9.420;2023-05-11T01:37:56;98381.06;;;11.96;100.00
53270;BME280;39159;45.634;9.420;2023-05-11T01:40:26;98377.69;;;11.91;100.00
53270;BME280;39159;45.634;9.420;2023-05-11T01:43:07;98380.25;;;11.87;100.00
53270;BME280;39159;45.634;9.420;2023-05-11T01:45:36;98369.81;;;11.89;100.00
53270;BME280;39159;45.634;9.420;2023-05-11T01:48:05;98371.75;;;11.89;100.00
53270;BME280;39159;45.634;9.420;2023-05-11T01:50:32;98369.03;;;11.89;100.00
53270;BME280;39159;45.634;9.420;2023-05-11T01:53:01;98370.16;;;11.88;100.00
53270;BME280;39159;45.634;9.420;2023-05-11T01:55:30;98369.03;;;11.89;100.00
53270;BME280;39159;45.634;9.420;2023-05-11T01:57:57;98372.53;;;11.89;100.00
53270;BME280;39159;45.634;9.420;2023-05-11T02:00:24;98367.09;;;11.89;100.00
53270;BME280;39159;45.634;9.420;2023-05-11T02:02:50;98364.50;;;11.93;100.00
53270;BME280;39159;45.634;9.420;2023-05-11T02:05:20;98364.97;;;11.95;100.00
53270;BME280;39159;45.634;9.420;2023-05-11T02:07:50;98359.66;;;11.98;100.00
53270;BME280;39159;45.634;9.420;2023-05-11T02:10:17;98362.03;;;12.00;100.00
53270;BME280;39159;45.634;9.420;2023-05-11T02:12:44;98368.75;;;12.02;100.00
53270;BME280;39159;45.634;9.420;2023-05-11T02:15:11;98372.78;;;12.05;100.00
53270;BME280;39159;45.634;9.420;2023-05-11T02:17:39;98365.72;;;12.04;100.00
53270;BME280;39159;45.634;9.420;2023-05-11T02:20:06;98363.66;;;12.01;100.00
53270;BME280;39159;45.634;9.420;2023-05-11T02:22:34;98357.72;;;11.99;100.00
53270;BME280;39159;45.634;9.420;2023-05-11T02:25:02;98358.34;;;11.96;100.00
53270;BME280;39159;45.634;9.420;2023-05-11T02:27:27;98361.28;;;11.91;100.00
53270;BME280;39159;45.634;9.420;2023-05-11T02:29:53;98359.69;;;11.90;100.00
53270;BME280;39159;45.634;9.420;2023-05-11T02:32:20;98367.09;;;11.89;100.00
53270;BME280;39159;45.634;9.420;2023-05-11T02:34:53;98367.44;;;11.88;100.00
53270;BME280;39159;45.634;9.420;2023-05-11T02:37:23;98362.91;;;11.92;100.00
53270;BME280;39159;45.634;9.420;2023-05-11T02:39:57;98361.44;;;11.94;100.00
53270;BME280;39159;45.634;9.420;2023-05-11T02:42:23;98367.03;;;11.98;100.00
53270;BME280;39159;45.634;9.420;2023-05-11T02:44:57;98363.19;;;11.99;100.00
53270;BME280;39159;45.634;9.420;2023-05-11T02:47:28;98358.50;;;11.99;100.00
53270;BME280;39159;45.634;9.420;2023-05-11T02:49:56;98359.78;;;12.02;100.00
53270;BME280;39159;45.634;9.420;2023-05-11T02:52:25;98359.78;;;12.02;100.00
53270;BME280;39159;45.634;9.420;2023-05-11T02:54:53;98359.44;;;12.03;100.00
53270;BME280;39159;45.634;9.420;2023-05-11T02:57:20;98357.50;;;12.04;100.00
53270;BME280;39159;45.634;9.420;2023-05-11T02:59:47;98357.50;;;12.04;100.00
53270;BME280;39159;45.634;9.420;2023-05-11T03:02:12;98365.38;;;12.06;100.00
53270;BME280;39159;45.634;9.420;2023-05-11T03:04:38;98359.13;;;12.05;100.00
53270;BME280;39159;45.634;9.420;2023-05-11T03:07:05;98358.66;;;12.03;100.00
53270;BME280;39159;45.634;9.420;2023-05-11T03:09:31;98355.56;;;12.05;100.00
53270;BME280;39159;45.634;9.420;2023-05-11T03:11:58;98362.66;;;12.06;100.00
53270;BME280;39159;45.634;9.420;2023-05-11T03:14:24;98359.13;;;12.05;100.00
53270;BME280;39159;45.634;9.420;2023-05-11T03:16:50;98357.97;;;12.06;100.00
53270;BME280;39159;45.634;9.420;2023-05-11T03:19:16;98360.38;;;12.08;100.00
53270;BME280;39159;45.634;9.420;2023-05-11T03:21:42;98354.09;;;12.07;100.00
53270;BME280;39159;45.634;9.420;2023-05-11T03:24:09;98354.25;;;12.11;100.00
53270;BME280;39159;45.634;9.420;2023-05-11T03:26:35;98351.50;;;12.11;100.00
53270;BME280;39159;45.634;9.420;2023-05-11T03:29:01;98353.56;;;12.14;100.00
53270;BME280;39159;45.634;9.420;2023-05-11T03:31:27;98349.25;;;12.13;100.00
53270;BME280;39159;45.634;9.420;2023-05-11T03:33:53;98344.25;;;12.15;100.00
53270;BME280;39159;45.634;9.420;2023-05-11T03:36:20;98337.97;;;12.14;100.00
53270;BME280;39159;45.634;9.420;2023-05-11T03:38:47;98342.31;;;12.15;100.00
53270;BME280;39159;45.634;9.420;2023-05-11T03:41:16;98345.84;;;12.16;100.00
53270;BME280;39159;45.634;9.420;2023-05-11T03:43:44;98343.44;;;12.14;100.00
53270;BME280;39159;45.634;9.420;2023-05-11T03:46:12;98343.78;;;12.13;100.00
53270;BME280;39159;45.634;9.420;2023-05-11T03:48:41;98334.31;;;12.10;100.00
53270;BME280;39159;45.634;9.420;2023-05-11T03:51:08;98341.03;;;12.13;100.00
53270;BME280;39159;45.634;9.420;2023-05-11T03:53:34;98339.88;;;12.14;100.00
53270;BME280;39159;45.634;9.420;2023-05-11T03:56:00;98339.88;;;12.14;100.00
53270;BME280;39159;45.634;9.420;2023-05-11T03:58:26;98333.44;;;12.18;100.00
53270;BME280;39159;45.634;9.420;2023-05-11T04:00:52;98336.03;;;12.15;100.00
53270;BME280;39159;45.634;9.420;2023-05-11T04:03:17;98341.97;;;12.17;100.00
53270;BME280;39159;45.634;9.420;2023-05-11T04:05:42;98341.66;;;12.18;100.00
53270;BME280;39159;45.634;9.420;2023-05-11T04:08:09;98343.56;;;12.18;100.00
53270;BME280;39159;45.634;9.420;2023-05-11T04:10:35;98342.09;;;12.20;100.00
53270;BME280;39159;45.634;9.420;2023-05-11T04:13:02;98339.81;;;12.22;100.00
53270;BME280;39159;45.634;9.420;2023-05-11T04:15:28;98339.50;;;12.24;100.00
53270;BME280;39159;45.634;9.420;2023-05-11T04:17:54;98339.19;;;12.26;100.00
53270;BME280;39159;45.634;9.420;2023-05-11T04:20:20;98338.72;;;12.23;100.00
53270;BME280;39159;45.634;9.420;2023-05-11T04:22:45;98337.56;;;12.24;100.00
53270;BME280;39159;45.634;9.420;2023-05-11T04:25:11;98335.97;;;12.23;100.00
53270;BME280;39159;45.634;9.420;2023-05-11T04:27:37;98332.91;;;12.25;100.00
53270;BME280;39159;45.634;9.420;2023-05-11T04:30:04;98336.44;;;12.26;100.00
53270;BME280;39159;45.634;9.420;2023-05-11T04:32:30;98332.91;;;12.25;100.00
53270;BME280;39159;45.634;9.420;2023-05-11T04:34:55;98336.09;;;12.27;100.00
53270;BME280;39159;45.634;9.420;2023-05-11T04:37:21;98337.72;;;12.28;100.00
53270;BME280;39159;45.634;9.420;2023-05-11T04:39:46;98335.44;;;12.30;100.00
53270;BME280;39159;45.634;9.420;2023-05-11T04:42:12;98338.19;;;12.30;100.00
53270;BME280;39159;45.634;9.420;2023-05-11T04:44:37;98338.28;;;12.34;100.00
53270;BME280;39159;45.634;9.420;2023-05-11T04:47:03;98337.16;;;12.35;100.00
53270;BME280;39159;45.634;9.420;2023-05-11T04:49:29;98336.16;;;12.39;100.00
53270;BME280;39159;45.634;9.420;2023-05-11T04:51:55;98340.63;;;12.44;100.00
53270;BME280;39159;45.634;9.420;2023-05-11T04:54:20;98331.72;;;12.47;100.00
53270;BME280;39159;45.634;9.420;2023-05-11T04:56:45;98331.41;;;12.49;100.00
53270;BME280;39159;45.634;9.420;2023-05-11T04:59:11;98336.88;;;12.49;100.00
53270;BME280;39159;45.634;9.420;2023-05-11T05:01:36;98329.13;;;12.51;100.00
53270;BME280;39159;45.634;9.420;2023-05-11T05:04:02;98336.66;;;12.54;100.00
53270;BME280;39159;45.634;9.420;2023-05-11T05:06:27;98336.00;;;12.57;100.00
53270;BME280;39159;45.634;9.420;2023-05-11T05:08:53;98338.44;;;12.58;100.00
53270;BME280;39159;45.634;9.420;2023-05-11T05:11:18;98343.53;;;12.60;100.00
53270;BME280;39159;45.634;9.420;2023-05-11T05:13:44;98344.16;;;12.65;100.00
53270;BME280;39159;45.634;9.420;2023-05-11T05:16:09;98346.22;;;12.69;100.00
53270;BME280;39159;45.634;9.420;2023-05-11T05:18:35;98344.53;;;12.76;100.00
53270;BME280;39159;45.634;9.420;2023-05-11T05:21:01;98339.63;;;12.82;100.00
53270;BME280;39159;45.634;9.420;2023-05-11T05:23:26;98339.63;;;12.82;100.00
53270;BME280;39159;45.634;9.420;2023-05-11T05:25:52;98341.72;;;12.85;100.00
53270;BME280;39159;45.634;9.420;2023-05-11T05:28:17;98345.16;;;12.94;100.00
53270;BME280;39159;45.634;9.420;2023-05-11T05:30:43;98345.16;;;12.94;100.00
53270;BME280;39159;45.634;9.420;2023-05-11T05:33:08;98339.22;;;12.92;100.00
53270;BME280;39159;45.634;9.420;2023-05-11T05:35:34;98327.56;;;12.95;100.00
53270;BME280;39159;45.634;9.420;2023-05-11T05:37:59;98330.56;;;13.02;100.00
53270;BME280;39159;45.634;9.420;2023-05-11T05:40:25;98322.78;;;13.04;100.00
53270;BME280;39159;45.634;9.420;2023-05-11T05:42:51;98331.00;;;13.04;100.00
53270;BME280;39159;45.634;9.420;2023-05-11T05:45:16;98331.00;;;13.04;100.00
53270;BME280;39159;45.634;9.420;2023-05-11T05:47:42;98327.16;;;13.05;100.00
53270;BME280;39159;45.634;9.420;2023-05-11T05:50:08;98333.56;;;13.10;100.00
53270;BME280;39159;45.634;9.420;2023-05-11T05:52:33;98330.91;;;13.13;100.00
53270;BME280;39159;45.634;9.420;2023-05-11T05:54:58;98327.94;;;13.18;100.00
53270;BME280;39159;45.634;9.420;2023-05-11T05:57:24;98329.56;;;13.19;100.00
53270;BME280;39159;45.634;9.420;2023-05-11T05:59:49;98336.75;;;13.24;100.00
53270;BME280;39159;45.634;9.420;2023-05-11T06:02:15;98332.53;;;13.26;100.00
53270;BME280;39159;45.634;9.420;2023-05-11T06:04:41;98323.31;;;13.31;100.00
53270;BME280;39159;45.634;9.420;2023-05-11T06:07:07;98329.03;;;13.38;100.00
53270;BME280;39159;45.634;9.420;2023-05-11T06:09:32;98324.47;;;13.42;100.00
53270;BME280;39159;45.634;9.420;2023-05-11T06:11:58;98317.06;;;13.43;100.00
53270;BME280;39159;45.634;9.420;2023-05-11T06:14:24;98320.03;;;13.50;100.00
53270;BME280;39159;45.634;9.420;2023-05-11T06:16:50;98317.50;;;13.45;100.00
53270;BME280;39159;45.634;9.420;2023-05-11T06:19:15;98318.41;;;13.49;100.00
53270;BME280;39159;45.634;9.420;2023-05-11T06:21:41;98319.56;;;13.60;100.00
53270;BME280;39159;45.634;9.420;2023-05-11T06:24:09;98310.41;;;13.68;100.00
53270;BME280;39159;45.634;9.420;2023-05-11T06:26:34;98316.13;;;13.76;100.00
53270;BME280;39159;45.634;9.420;2023-05-11T06:29:00;98315.53;;;13.82;100.00
53270;BME280;39159;45.634;9.420;2023-05-11T06:31:26;98324.81;;;13.78;100.00
53270;BME280;39159;45.634;9.420;2023-05-11T06:33:51;98312.81;;;13.82;100.00
53270;BME280;39159;45.634;9.420;2023-05-11T06:36:17;98320.22;;;13.82;100.00
53270;BME280;39159;45.634;9.420;2023-05-11T06:38:43;98317.03;;;13.92;100.00
53270;BME280;39159;45.634;9.420;2023-05-11T06:41:08;98319.06;;;13.95;100.00
53270;BME280;39159;45.634;9.420;2023-05-11T06:43:36;98320.91;;;13.91;100.00
53270;BME280;39159;45.634;9.420;2023-05-11T06:46:02;98314.38;;;13.96;100.00
53270;BME280;39159;45.634;9.420;2023-05-11T06:48:28;98313.91;;;14.06;100.00
53270;BME280;39159;45.634;9.420;2023-05-11T06:50:54;98312.53;;;14.00;100.00
53270;BME280;39159;45.634;9.420;2023-05-11T06:53:20;98313.78;;;14.02;100.00
53270;BME280;39159;45.634;9.420;2023-05-11T06:55:45;98316.53;;;14.02;100.00
53270;BME280;39159;45.634;9.420;2023-05-11T06:58:11;98319.25;;;14.15;100.00
53270;BME280;39159;45.634;9.420;2023-05-11T07:00:37;98315.94;;;14.21;100.00
53270;BME280;39159;45.634;9.420;2023-05-11T07:03:03;98312.94;;;14.26;100.00
53270;BME280;39159;45.634;9.420;2023-05-11T07:05:28;98319.00;;;14.32;100.00
53270;BME280;39159;45.634;9.420;2023-05-11T07:07:54;98319.91;;;14.24;100.00
53270;BME280;39159;45.634;9.420;2023-05-11T07:10:20;98316.91;;;14.29;100.00
53270;BME280;39159;45.634;9.420;2023-05-11T07:12:45;98317.16;;;14.36;100.00
53270;BME280;39159;45.634;9.420;2023-05-11T07:15:11;98321.69;;;14.44;100.00
53270;BME280;39159;45.634;9.420;2023-05-11T07:17:36;98323.28;;;14.45;100.00
53270;BME280;39159;45.634;9.420;2023-05-11T07:20:02;98325.56;;;14.56;100.00
53270;BME280;39159;45.634;9.420;2023-05-11T07:22:28;98329.75;;;14.65;100.00
53270;BME280;39159;45.634;9.420;2023-05-11T07:24:53;98323.66;;;14.72;100.00
53270;BME280;39159;45.634;9.420;2023-05-11T07:27:18;98325.81;;;14.79;100.00
53270;BME280;39159;45.634;9.420;2023-05-11T07:29:44;98332.84;;;14.64;100.00
53270;BME280;39159;45.634;9.420;2023-05-11T07:32:09;98326.25;;;14.81;100.00
53270;BME280;39159;45.634;9.420;2023-05-11T07:34:35;98323.44;;;14.93;100.00
53270;BME280;39159;45.634;9.420;2023-05-11T07:37:00;98318.13;;;15.00;100.00
53270;BME280;39159;45.634;9.420;2023-05-11T07:39:26;98321.31;;;15.02;100.00
53270;BME280;39159;45.634;9.420;2023-05-11T07:41:51;98322.03;;;15.15;100.00
53270;BME280;39159;45.634;9.420;2023-05-11T07:44:17;98318.56;;;15.18;100.00
53270;BME280;39159;45.634;9.420;2023-05-11T07:46:42;98325.59;;;15.16;100.00
53270;BME280;39159;45.634;9.420;2023-05-11T07:49:08;98321.44;;;15.22;100.00
53270;BME280;39159;45.634;9.420;2023-05-11T07:51:35;98317.72;;;15.30;100.00
53270;BME280;39159;45.634;9.420;2023-05-11T07:54:01;98321.16;;;15.27;100.00
53270;BME280;39159;45.634;9.420;2023-05-11T07:56:27;98320.28;;;15.39;100.00
53270;BME280;39159;45.634;9.420;2023-05-11T07:58:52;98325.31;;;15.52;100.00
53270;BME280;39159;45.634;9.420;2023-05-11T08:01:17;98319.00;;;15.68;100.00
53270;BME280;39159;45.634;9.420;2023-05-11T08:03:43;98314.59;;;15.79;100.00
53270;BME280;39159;45.634;9.420;2023-05-11T08:06:08;98319.81;;;15.84;100.00
53270;BME280;39159;45.634;9.420;2023-05-11T08:08:34;98315.28;;;15.76;100.00
53270;BME280;39159;45.634;9.420;2023-05-11T08:11:00;98317.16;;;15.56;100.00
53270;BME280;39159;45.634;9.420;2023-05-11T08:13:26;98320.78;;;15.60;100.00
53270;BME280;39159;45.634;9.420;2023-05-11T08:15:51;98313.41;;;15.64;100.00
53270;BME280;39159;45.634;9.420;2023-05-11T08:18:17;98312.63;;;15.64;100.00
53270;BME280;39159;45.634;9.420;2023-05-11T08:20:42;98313.78;;;15.79;100.00
53270;BME280;39159;45.634;9.420;2023-05-11T08:23:08;98317.50;;;15.86;100.00
53270;BME280;39159;45.634;9.420;2023-05-11T08:25:35;98312.16;;;15.93;100.00
53270;BME280;39159;45.634;9.420;2023-05-11T08:28:01;98315.47;;;15.83;100.00
53270;BME280;39159;45.634;9.420;2023-05-11T08:30:26;98312.91;;;15.74;100.00
53270;BME280;39159;45.634;9.420;2023-05-11T08:32:52;98311.75;;;15.75;100.00
53270;BME280;39159;45.634;9.420;2023-05-11T08:35:17;98313.75;;;15.94;100.00
53270;BME280;39159;45.634;9.420;2023-05-11T08:37:43;98310.50;;;16.08;100.00
53270;BME280;39159;45.634;9.420;2023-05-11T08:40:12;98308.56;;;16.28;100.00
53270;BME280;39159;45.634;9.420;2023-05-11T08:42:39;98308.28;;;16.53;100.00
53270;BME280;39159;45.634;9.420;2023-05-11T08:45:05;98307.97;;;16.58;100.00
53270;BME280;39159;45.634;9.420;2023-05-11T08:47:32;98307.97;;;16.77;100.00
53270;BME280;39159;45.634;9.420;2023-05-11T08:49:58;98307.75;;;17.06;100.00
53270;BME280;39159;45.634;9.420;2023-05-11T08:52:24;98311.91;;;17.19;100.00
53270;BME280;39159;45.634;9.420;2023-05-11T08:54:51;98308.03;;;17.24;100.00
53270;BME280;39159;45.634;9.420;2023-05-11T08:57:18;98303.69;;;16.99;100.00
53270;BME280;39159;45.634;9.420;2023-05-11T08:59:44;98308.34;;;17.18;100.00
53270;BME280;39159;45.634;9.420;2023-05-11T09:02:16;98306.97;;;17.32;100.00
53270;BME280;39159;45.634;9.420;2023-05-11T09:04:42;98311.88;;;17.42;100.00
53270;BME280;39159;45.634;9.420;2023-05-11T09:07:10;98304.03;;;17.44;100.00
53270;BME280;39159;45.634;9.420;2023-05-11T09:09:36;98308.13;;;17.54;100.00
53270;BME280;39159;45.634;9.420;2023-05-11T09:12:02;98304.31;;;17.62;100.00
53270;BME280;39159;45.634;9.420;2023-05-11T09:14:28;98318.00;;;17.55;100.00
53270;BME280;39159;45.634;9.420;2023-05-11T09:16:54;98306.28;;;17.61;100.00
53270;BME280;39159;45.634;9.420;2023-05-11T09:19:19;98308.25;;;17.61;100.00
53270;BME280;39159;45.634;9.420;2023-05-11T09:21:46;98308.63;;;17.59;100.00
53270;BME280;39159;45.634;9.420;2023-05-11T09:24:12;98311.63;;;17.51;100.00
53270;BME280;39159;45.634;9.420;2023-05-11T09:26:38;98306.28;;;17.61;100.00
53270;BME280;39159;45.634;9.420;2023-05-11T09:29:03;98311.72;;;17.54;99.20
53270;BME280;39159;45.634;9.420;2023-05-11T09:31:42;98307.59;;;17.45;100.00
53270;BME280;39159;45.634;9.420;2023-05-11T09:36:42;98301.78;;;17.76;100.00
53270;BME280;39159;45.634;9.420;2023-05-11T09:39:08;98301.16;;;17.87;100.00
53270;BME280;39159;45.634;9.420;2023-05-11T09:41:34;98304.72;;;17.87;100.00
53270;BME280;39159;45.634;9.420;2023-05-11T09:44:09;98304.78;;;17.91;93.61
53270;BME280;39159;45.634;9.420;2023-05-11T09:46:38;98300.56;;;18.00;100.00
53270;BME280;39159;45.634;9.420;2023-05-11T09:49:05;98299.50;;;18.09;95.44
53270;BME280;39159;45.634;9.420;2023-05-11T09:51:32;98306.22;;;18.08;90.62
53270;BME280;39159;45.634;9.420;2023-05-11T09:53:59;98309.66;;;18.01;89.64
53270;BME280;39159;45.634;9.420;2023-05-11T09:56:51;98304.69;;;18.14;89.34
53270;BME280;39159;45.634;9.420;2023-05-11T10:02:28;98296.03;;;18.15;90.81
53270;BME280;39159;45.634;9.420;2023-05-11T10:04:59;98300.63;;;18.34;87.92
53270;BME280;39159;45.634;9.420;2023-05-11T10:07:34;98294.56;;;18.21;82.73
53270;BME280;39159;45.634;9.420;2023-05-11T10:10:02;98292.53;;;18.18;78.60
53270;BME280;39159;45.634;9.420;2023-05-11T10:12:29;98295.03;;;18.00;78.08
53270;BME280;39159;45.634;9.420;2023-05-11T10:15:02;98294.66;;;17.75;86.17
53270;BME280;39159;45.634;9.420;2023-05-11T10:17:28;98294.53;;;17.91;82.68
53270;BME280;39159;45.634;9.420;2023-05-11T10:19:58;98294.16;;;17.93;81.25
53270;BME280;39159;45.634;9.420;2023-05-11T10:22:25;98290.22;;;17.94;79.15
53270;BME280;39159;45.634;9.420;2023-05-11T10:24:52;98293.75;;;17.91;77.42
53270;BME280;39159;45.634;9.420;2023-05-11T10:27:18;98288.66;;;17.93;81.95
53270;BME280;39159;45.634;9.420;2023-05-11T10:29:46;98288.59;;;17.89;79.49
53270;BME280;39159;45.634;9.420;2023-05-11T10:32:13;98293.53;;;18.03;81.42
53270;BME280;39159;45.634;9.420;2023-05-11T10:34:40;98285.94;;;18.27;81.60
53270;BME280;39159;45.634;9.420;2023-05-11T10:37:07;98286.06;;;18.71;79.94
53270;BME280;39159;45.634;9.420;2023-05-11T10:39:36;98290.69;;;18.97;76.44
53270;BME280;39159;45.634;9.420;2023-05-11T11:01:49;98270.75;;;18.13;80.16
53270;BME280;39159;45.634;9.420;2023-05-11T11:04:22;98270.47;;;17.92;83.03
53270;BME280;39159;45.634;9.420;2023-05-11T11:07:03;98269.00;;;17.98;81.78
53270;BME280;39159;45.634;9.420;2023-05-11T11:12:13;98259.81;;;18.20;82.40
53270;BME280;39159;45.634;9.420;2023-05-11T11:14:58;98258.31;;;18.27;80.53
53270;BME280;39159;45.634;9.420;2023-05-11T11:17:29;98255.09;;;18.21;84.13
53270;BME280;39159;45.634;9.420;2023-05-11T11:19:59;98262.28;;;18.29;84.77
53270;BME280;39159;45.634;9.420;2023-05-11T11:25:10;98257.88;;;18.58;83.27
53270;BME280;39159;45.634;9.420;2023-05-11T11:32:42;98256.09;;;18.77;74.59
53270;BME280;39159;45.634;9.420;2023-05-11T11:40:50;98251.69;;;18.69;73.90
53270;BME280;39159;45.634;9.420;2023-05-11T11:45:56;98251.81;;;18.12;75.09
53270;BME280;39159;45.634;9.420;2023-05-11T11:48:38;98246.91;;;17.98;74.53
53270;BME280;39159;45.634;9.420;2023-05-11T11:51:10;98239.88;;;18.04;73.55
53270;BME280;39159;45.634;9.420;2023-05-11T11:56:35;98246.81;;;18.21;73.33
53270;BME280;39159;45.634;9.420;2023-05-11T11:58:59;98248.03;;;18.27;73.14
53270;BME280;39159;45.634;9.420;2023-05-11T12:01:33;98247.25;;;18.60;73.70
53270;BME280;39159;45.634;9.420;2023-05-11T12:06:38;98241.25;;;18.89;70.95
53270;BME280;39159;45.634;9.420;2023-05-11T12:09:05;98250.13;;;18.71;69.61
53270;BME280;39159;45.634;9.420;2023-05-11T12:11:31;98244.56;;;18.68;69.89
53270;BME280;39159;45.634;9.420;2023-05-11T12:14:00;98247.66;;;18.62;67.27
53270;BME280;39159;45.634;9.420;2023-05-11T12:16:26;98251.94;;;18.22;72.03
53270;BME280;39159;45.634;9.420;2023-05-11T12:18:57;98248.03;;;18.27;74.11
53270;BME280;39159;45.634;9.420;2023-05-11T12:21:27;98245.69;;;18.26;71.46
53270;BME280;39159;45.634;9.420;2023-05-11T12:23:57;98251.72;;;18.35;72.19
53270;BME280;39159;45.634;9.420;2023-05-11T12:26:24;98254.53;;;18.08;76.84
53270;BME280;39159;45.634;9.420;2023-05-11T12:28:51;98257.47;;;18.22;74.93
53270;BME280;39159;45.634;9.420;2023-05-11T12:31:37;98250.06;;;17.96;78.57
53270;BME280;39159;45.634;9.420;2023-05-11T12:34:03;98257.22;;;18.01;77.84
53270;BME280;39159;45.634;9.420;2023-05-11T12:36:28;98262.59;;;17.90;75.75
53270;BME280;39159;45.634;9.420;2023-05-11T12:38:54;98255.16;;;17.68;77.16
53270;BME280;39159;45.634;9.420;2023-05-11T12:41:21;98250.25;;;17.57;77.56
53270;BME280;39159;45.634;9.420;2023-05-11T12:43:51;98249.63;;;17.68;78.55
53270;BME280;39159;45.634;9.420;2023-05-11T12:46:18;98251.72;;;17.78;77.14
53270;BME280;39159;45.634;9.420;2023-05-11T12:48:47;98254.25;;;17.87;76.18
53270;BME280;39159;45.634;9.420;2023-05-11T12:51:49;98252.50;;;17.78;78.52
53270;BME280;39159;45.634;9.420;2023-05-11T12:54:29;98239.47;;;17.75;78.80
53270;BME280;39159;45.634;9.420;2023-05-11T12:56:56;98250.44;;;17.72;77.46
53270;BME280;39159;45.634;9.420;2023-05-11T13:02:06;98252.41;;;17.71;87.13
53270;BME280;39159;45.634;9.420;2023-05-11T13:04:31;98249.81;;;17.29;100.00
53270;BME280;39159;45.634;9.420;2023-05-11T13:06:57;98257.47;;;16.70;100.00
53270;BME280;39159;45.634;9.420;2023-05-11T13:09:24;98258.47;;;16.81;100.00
53270;BME280;39159;45.634;9.420;2023-05-11T13:12:09;98249.34;;;16.57;100.00
53270;BME280;39159;45.634;9.420;2023-05-11T13:14:35;98248.91;;;16.55;100.00
53270;BME280;39159;45.634;9.420;2023-05-11T13:17:00;98256.88;;;16.61;100.00
53270;BME280;39159;45.634;9.420;2023-05-11T13:19:27;98260.94;;;16.47;100.00
53270;BME280;39159;45.634;9.420;2023-05-11T13:21:54;98262.69;;;16.36;100.00
53270;BME280;39159;45.634;9.420;2023-05-11T13:24:23;98252.06;;;16.34;100.00
53270;BME280;39159;45.634;9.420;2023-05-11T13:26:49;98252.38;;;16.72;100.00
53270;BME280;39159;45.634;9.420;2023-05-11T13:29:16;98255.31;;;16.40;100.00
53270;BME280;39159;45.634;9.420;2023-05-11T13:31:45;98243.72;;;16.93;100.00
53270;BME280;39159;45.634;9.420;2023-05-11T13:34:11;98227.75;;;16.60;100.00
53270;BME280;39159;45.634;9.420;2023-05-11T13:36:37;98227.00;;;16.20;100.00
53270;BME280;39159;45.634;9.420;2023-05-11T13:39:03;98213.31;;;16.24;100.00
53270;BME280;39159;45.634;9.420;2023-05-11T13:41:28;98216.84;;;16.24;100.00
53270;BME280;39159;45.634;9.420;2023-05-11T13:43:54;98215.53;;;16.18;100.00
53270;BME280;39159;45.634;9.420;2023-05-11T13:46:19;98219.66;;;15.89;100.00
53270;BME280;39159;45.634;9.420;2023-05-11T13:48:46;98216.97;;;15.73;100.00
53270;BME280;39159;45.634;9.420;2023-05-11T13:51:11;98211.06;;;15.55;100.00